Aeroporto :
LOGIN :

Iscrizione | Disclaimer

   EN    FR    IT 

 










Sommario :    VFR   VFR Marginale   IFR   IFR Intensivo   IFR Molto Intensivo
Visibilità : 
Base nubi : 
>= 8 km
>= 3000ft
5 / 8 km
1000 / 3000 ft
1500m / 5 km
500 / 1000 ft
800 / 1500m
200 / 500 ft
< 800m
< 200 ft
Simboli :   Temporali  Nebbia  Neve Forte  Precipitazioni Forti  Vento > 20 kt
SIGMETs :   Varie  Temporali  Ghiacco  Turbolenza  Onda orograficha  Ceneri Vulcaniche







- Altitudine del aeroporto : 74 ft
- Codice IATA : EIN


EHEH - Eindhoven

ULTIMO METAR :
  • 191155Z AUTO 10008KT 030V150 9999 NCD 24/03 Q1027 BLU 08009KT CAVOK

METARs OBSOLETI :
  • 191125Z AUTO 08008KT 020V120 9999 NCD 23/04 Q1027 BLU 08008KT CAVOK
  • 191055Z AUTO 10008KT 010V120 9999 NCD 22/05 Q1027 BLU 08008KT CAVOK
  • 191025Z AUTO 07008KT 040V140 9999 NCD 22/05 Q1027 BLU 07007KT CAVOK
  • 190955Z AUTO 06007KT 020V140 9999 NCD 21/05 Q1028 BLU 07007KT CAVOK
  • 190925Z AUTO 10006KT 070V160 9999 NCD 20/05 Q1028 BLU 08008KT CAVOK

TAF TAF EHEH
Valido dal 19 a 12 ore il 20 a 18 ore UTC


191137Z 1912/2018 07009KT CAVOK
Nessun NOTAM noto per questo aeroporto.



MetMap, La meteo Aeronautica in un colpo d'occhio ! - Copyright ORBIFLY Dicembre 2007 - Disclaimer

ORBIFLY MET'MAP TEAM :

Programmazione e sviluppo : Alexandra Zaïnal
Concezione e sviluppo : Baudouin d'Aumeries
Co-Programmazione e sviluppo : Marc-Olivier Méhu
Supporto tecnico e logistico : Manuel Goepfert
Aiuto per la traduzione : Arnaldo La Scala

Contatto : metmap@orbifly.com




FONTI E CREDITI :

   NOAA